Time;durP1;ratioP1;P1;durP2;ratioP2;P2;SDS_P1;SDS_P2;PMS_P1;PMS_P2;Temp;Humidity;BMP_temperature;BMP_pressure;BME280_temperature;BME280_humidity;BME280_pressure;Samples;Min_cycle;Max_cycle;Signal;HPM_P1;HPM_P2
2021/07/13 00:03:15;;;;;;;15.85;9.07;;;;;;;18.22;75.05;99520.53;10460665;28;20048;-71
2021/07/13 00:08:17;;;;;;;9.38;8.45;;;;;;;18.02;76.13;99525.47;10462866;28;20041;-71
2021/07/13 00:13:18;;;;;;;9.40;7.72;;;;;;;18.35;74.39;99518.69;10461075;28;20410;-72
2021/07/13 00:18:20;;;;;;;9.43;7.70;;;;;;;18.36;74.18;99520.38;10463059;28;20411;-71
2021/07/13 00:23:22;;;;;;;10.68;8.10;;;;;;;18.08;75.77;99517.03;10462752;28;20082;-72
2021/07/13 00:28:23;;;;;;;7.88;7.28;;;;;;;17.74;76.03;99502.59;10460405;28;20091;-72
2021/07/13 00:33:25;;;;;;;7.97;7.18;;;;;;;18.03;75.67;99503.22;10461658;28;20044;-71
2021/07/13 00:38:27;;;;;;;8.75;7.85;;;;;;;17.65;77.19;99493.44;10461481;28;20060;-72
2021/07/13 00:43:29;;;;;;;8.10;7.57;;;;;;;17.59;78.28;99501.00;10460826;28;20482;-72
2021/07/13 00:48:30;;;;;;;7.63;7.03;;;;;;;17.53;78.28;99496.09;10461547;28;20045;-72
2021/07/13 00:53:32;;;;;;;7.15;6.55;;;;;;;18.04;76.06;99499.59;10460201;28;20044;-71
2021/07/13 00:58:33;;;;;;;7.43;6.75;;;;;;;17.91;75.68;99496.09;10460197;28;20127;-71
2021/07/13 01:03:36;;;;;;;7.55;6.93;;;;;;;17.75;75.64;99490.16;10459926;28;20456;-72
2021/07/13 01:08:56;;;;;;;7.03;6.45;;;;;;;17.45;77.33;99477.19;10460185;28;20613;-71
2021/07/13 01:14:09;;;;;;;7.63;6.38;;;;;;;17.35;78.03;99477.81;10460068;28;20045;-71
2021/07/13 01:19:49;;;;;;;7.32;6.72;;;;;;;17.12;79.37;99476.72;10460198;28;20044;-71
2021/07/13 01:25:16;;;;;;;7.90;7.40;;;;;;;17.28;78.54;99486.31;10459329;28;20072;-71
2021/07/13 01:30:28;;;;;;;7.55;6.78;;;;;;;17.09;79.36;99479.59;10459304;28;20049;-72
2021/07/13 01:35:50;;;;;;;6.82;6.32;;;;;;;17.19;79.29;99469.19;10457430;28;20052;-72
2021/07/13 01:40:58;;;;;;;6.80;6.15;;;;;;;17.28;78.67;99489.81;10458937;28;20120;-71
2021/07/13 01:46:01;;;;;;;6.97;6.47;;;;;;;16.95;79.56;99466.38;10471170;22;20405;-68
2021/07/13 01:51:05;;;;;;;8.15;6.50;;;;;;;16.80;80.10;99465.59;10456008;28;20037;-68
2021/07/13 01:56:08;;;;;;;6.80;5.25;;;;;;;16.77;79.68;99483.53;10456339;28;20455;-69
2021/07/13 02:01:18;;;;;;;5.80;5.30;;;;;;;16.85;79.64;99476.75;10456219;28;20060;-69
2021/07/13 02:06:22;;;;;;;4.82;4.43;;;;;;;17.36;76.79;99466.22;10456975;28;20041;-69
2021/07/13 02:11:26;;;;;;;5.75;5.20;;;;;;;17.16;77.42;99474.69;10438219;28;20060;-70
2021/07/13 02:16:28;;;;;;;5.32;4.93;;;;;;;16.89;77.59;99458.81;10456602;28;20049;-70
2021/07/13 02:21:30;;;;;;;5.70;4.97;;;;;;;16.93;78.27;99454.16;10438663;28;20053;-69
2021/07/13 02:26:46;;;;;;;7.38;5.80;;;;;;;16.57;79.34;99453.81;10462690;28;20382;-69
2021/07/13 02:31:55;;;;;;;6.17;5.67;;;;;;;16.78;78.73;99446.28;10464372;28;20045;-69
2021/07/13 02:37:01;;;;;;;5.32;5.03;;;;;;;17.02;77.45;99456.19;10464466;28;20052;-69
2021/07/13 02:42:04;;;;;;;12.77;6.25;;;;;;;16.63;79.05;99447.25;10446164;28;20102;-69
2021/07/13 02:47:08;;;;;;;6.60;6.07;;;;;;;16.48;80.59;99443.81;10463391;28;20087;-70
2021/07/13 02:52:17;;;;;;;6.57;5.90;;;;;;;16.46;81.12;99439.53;10463280;28;20041;-69
2021/07/13 02:57:20;;;;;;;5.57;5.18;;;;;;;16.50;80.91;99431.28;10445011;28;20048;-69
2021/07/13 03:02:23;;;;;;;5.63;4.80;;;;;;;16.50;80.88;99417.16;10444595;28;20453;-70
2021/07/13 03:07:25;;;;;;;6.10;5.50;;;;;;;16.64;80.34;99420.63;10462896;28;20036;-70
2021/07/13 03:12:27;;;;;;;6.97;5.50;;;;;;;17.04;77.25;99420.59;10462851;28;20053;-69
2021/07/13 03:17:29;;;;;;;6.20;5.80;;;;;;;16.89;77.71;99429.63;10463197;28;20500;-69
2021/07/13 03:22:34;;;;;;;6.70;6.10;;;;;;;16.63;79.13;99421.56;10444131;28;20056;-70
2021/07/13 03:27:36;;;;;;;5.65;5.28;;;;;;;16.33;80.76;99402.34;10462362;28;20059;-69
2021/07/13 03:32:38;;;;;;;4.20;3.90;;;;;;;16.60;78.89;99416.47;10462769;28;20049;-69
2021/07/13 03:37:40;;;;;;;4.72;4.20;;;;;;;16.65;78.95;99432.94;10461627;28;20494;-70
2021/07/13 03:42:44;;;;;;;6.38;5.05;;;;;;;16.32;80.13;99427.19;10461548;28;20048;-70
2021/07/13 03:47:52;;;;;;;8.07;4.30;;;;;;;16.27;80.47;99424.00;10460918;28;20083;-70
2021/07/13 03:52:53;;;;;;;4.53;4.10;;;;;;;16.29;80.87;99425.59;10460947;28;20041;-68
2021/07/13 03:57:56;;;;;;;6.47;3.60;;;;;;;16.53;79.48;99436.41;10460905;28;20040;-70
2021/07/13 04:02:58;;;;;;;4.10;3.70;;;;;;;16.62;79.44;99438.44;10442629;28;20049;-70
2021/07/13 04:07:59;;;;;;;3.35;2.70;;;;;;;16.80;78.31;99438.22;10460309;28;20045;-70
2021/07/13 04:13:01;;;;;;;2.85;2.65;;;;;;;16.84;78.06;99431.75;10442469;28;20114;-70
2021/07/13 04:18:06;;;;;;;3.47;3.28;;;;;;;16.77;78.44;99431.28;10461332;28;20063;-69
2021/07/13 04:23:08;;;;;;;4.57;3.67;;;;;;;16.93;78.14;99423.16;10443533;28;20429;-70
2021/07/13 04:28:10;;;;;;;2.67;2.47;;;;;;;17.11;77.37;99416.59;10460786;28;20128;-69
2021/07/13 04:33:11;;;;;;;2.65;2.45;;;;;;;17.31;75.77;99424.97;10460691;28;20045;-70
2021/07/13 04:38:13;;;;;;;3.70;2.50;;;;;;;17.77;72.98;99422.66;10460315;28;20102;-69
2021/07/13 04:43:15;;;;;;;2.95;2.20;;;;;;;17.84;72.71;99425.69;10459861;28;20040;-69
2021/07/13 04:48:17;;;;;;;4.55;3.00;;;;;;;18.06;71.83;99423.22;10441867;28;20052;-70
2021/07/13 04:53:19;;;;;;;2.63;2.42;;;;;;;18.08;71.76;99425.78;10458617;28;20041;-68
2021/07/13 04:58:20;;;;;;;3.15;2.20;;;;;;;18.21;72.03;99420.41;10459165;28;20471;-68
2021/07/13 05:03:22;;;;;;;2.95;2.38;;;;;;;18.12;72.45;99409.47;10458876;28;20406;-67
2021/07/13 05:08:24;;;;;;;3.38;2.00;;;;;;;17.92;72.45;99419.84;10441266;28;20044;-69
2021/07/13 05:13:25;;;;;;;3.58;1.73;;;;;;;18.06;72.43;99412.59;10423793;28;20060;-69
2021/07/13 05:18:27;;;;;;;1.98;1.85;;;;;;;18.52;71.18;99405.69;10458083;28;20090;-69
2021/07/13 05:23:29;;;;;;;3.42;1.48;;;;;;;18.71;69.60;99403.38;10440022;28;20051;-68
2021/07/13 05:28:30;;;;;;;1.90;1.60;;;;;;;19.12;68.54;99410.00;10458808;28;20051;-68
2021/07/13 05:33:33;;;;;;;2.85;1.38;;;;;;;19.33;67.42;99399.53;10458705;28;20045;-68
2021/07/13 05:38:36;;;;;;;2.30;1.30;;;;;;;19.85;65.23;99390.94;10458310;28;20041;-69
2021/07/13 05:43:38;;;;;;;2.33;1.73;;;;;;;20.05;65.17;99385.81;10457745;28;20446;-68
2021/07/13 05:48:40;;;;;;;3.28;1.80;;;;;;;20.36;63.67;99392.16;10439351;28;20110;-69
2021/07/13 05:53:41;;;;;;;1.98;1.58;;;;;;;21.01;63.15;99379.63;10438873;28;20049;-69
2021/07/13 05:58:43;;;;;;;3.35;1.40;;;;;;;21.10;61.94;99381.50;10456746;28;20090;-68
2021/07/13 06:03:44;;;;;;;2.00;1.55;;;;;;;21.36;61.27;99382.81;10456913;28;20145;-68
2021/07/13 06:08:46;;;;;;;6.43;2.05;;;;;;;21.93;59.71;99380.50;10457556;28;20041;-68
2021/07/13 06:13:48;;;;;;;4.18;1.42;;;;;;;22.76;58.79;99378.34;10439131;28;20491;-69
2021/07/13 06:18:49;;;;;;;2.75;1.35;;;;;;;23.39;55.97;99370.63;10457897;28;20114;-69
2021/07/13 06:23:51;;;;;;;2.85;1.58;;;;;;;23.87;55.10;99370.44;10456620;28;20090;-69
2021/07/13 06:28:52;;;;;;;1.85;1.23;;;;;;;23.91;54.36;99361.09;10456761;28;20052;-69
2021/07/13 06:33:54;;;;;;;3.55;1.63;;;;;;;23.84;53.65;99365.34;10437638;28;20060;-69
2021/07/13 06:38:56;;;;;;;1.75;1.30;;;;;;;23.16;55.65;99368.28;10456334;28;20049;-68
2021/07/13 06:43:57;;;;;;;1.50;1.20;;;;;;;22.96;56.76;99369.31;10456116;28;20045;-69
2021/07/13 06:49:01;;;;;;;3.97;1.60;;;;;;;22.96;56.11;99377.34;10456084;28;20049;-68
2021/07/13 06:54:02;;;;;;;2.00;1.40;;;;;;;22.63;58.38;99375.97;10456000;28;20142;-69
2021/07/13 06:59:04;;;;;;;2.80;1.45;;;;;;;22.69;59.51;99379.91;10455374;28;20033;-68
2021/07/13 07:04:06;;;;;;;2.53;1.50;;;;;;;23.53;54.58;99371.97;10437902;28;20045;-70
2021/07/13 07:09:07;;;;;;;2.08;1.25;;;;;;;23.59;55.95;99374.88;10456410;28;20121;-69
2021/07/13 07:14:09;;;;;;;4.03;1.42;;;;;;;23.86;55.35;99359.81;10445126;28;20041;-70
2021/07/13 07:19:10;;;;;;;2.05;1.40;;;;;;;24.73;53.94;99359.22;10463395;28;20047;-68
2021/07/13 07:24:12;;;;;;;1.98;1.20;;;;;;;25.01;52.66;99351.84;10463862;28;20128;-67
2021/07/13 07:29:14;;;;;;;2.42;1.63;;;;;;;24.89;52.60;99351.28;10462328;28;20044;-70
2021/07/13 07:34:15;;;;;;;2.13;1.70;;;;;;;24.74;53.88;99354.69;10462810;28;20379;-69
2021/07/13 07:39:17;;;;;;;5.00;1.33;;;;;;;25.04;52.50;99350.69;10462631;28;20585;-69
2021/07/13 07:44:23;;;;;;;2.80;1.50;;;;;;;25.38;50.60;99330.09;10476643;22;20475;-75
2021/07/13 07:49:24;;;;;;;2.17;1.35;;;;;;;25.35;52.04;99337.63;10382249;28;20045;-73
2021/07/13 07:54:27;;;;;;;2.85;1.75;;;;;;;25.49;51.96;99328.13;10384254;28;20042;-73
2021/07/13 07:59:31;;;;;;;5.37;1.60;;;;;;;25.81;51.16;99322.03;10384062;28;20157;-74
2021/07/13 08:04:34;;;;;;;3.08;1.63;;;;;;;25.66;53.14;99319.09;10380787;28;20081;-74
2021/07/13 08:09:36;;;;;;;1.90;1.73;;;;;;;25.88;51.54;99313.16;10381894;28;20102;-74
2021/07/13 08:14:38;;;;;;;4.72;1.88;;;;;;;25.79;51.46;99294.47;10381351;28;20084;-74
2021/07/13 08:19:40;;;;;;;4.60;2.25;;;;;;;25.85;52.41;99285.72;10380265;28;20049;-74
2021/07/13 08:24:42;;;;;;;2.80;2.60;;;;;;;26.09;52.43;99290.31;10379760;28;20480;-74
2021/07/13 08:29:44;;;;;;;2.42;2.22;;;;;;;26.31;53.51;99291.50;10379055;28;20050;-74
2021/07/13 08:34:45;;;;;;;2.50;2.30;;;;;;;26.66;51.21;99293.91;10379642;28;20046;-73
2021/07/13 08:39:50;;;;;;;3.47;2.60;;;;;;;26.39;52.05;99286.97;10379822;28;20507;-73
2021/07/13 08:44:51;;;;;;;3.17;2.88;;;;;;;26.34;52.85;99283.94;10379635;28;20494;-74
2021/07/13 08:49:54;;;;;;;3.47;2.85;;;;;;;26.73;52.76;99279.72;10380181;28;20053;-74
2021/07/13 08:54:56;;;;;;;2.90;2.70;;;;;;;27.55;50.19;99262.31;10379508;28;20056;-74
2021/07/13 08:59:58;;;;;;;3.30;3.10;;;;;;;27.61;49.89;99258.88;10378894;28;20078;-75
2021/07/13 09:04:59;;;;;;;3.55;2.63;;;;;;;28.06;49.15;99268.09;10377595;28;20432;-73
2021/07/13 09:10:04;;;;;;;3.50;3.30;;;;;;;28.66;50.02;99258.34;10378931;28;20065;-74
2021/07/13 09:15:07;;;;;;;3.88;2.95;;;;;;;29.17;47.10;99258.50;10377355;28;20072;-73
2021/07/13 09:20:24;;;;;;;4.07;3.13;;;;;;;29.55;46.94;99264.66;10378428;28;20050;-72
2021/07/13 09:25:35;;;;;;;3.42;3.22;;;;;;;30.22;45.80;99258.09;10377965;28;20038;-73
2021/07/13 09:30:39;;;;;;;3.35;3.15;;;;;;;30.54;44.56;99253.16;10378011;28;20038;-74
2021/07/13 09:36:00;;;;;;;4.10;3.20;;;;;;;30.22;44.80;99239.13;10376003;28;20419;-73
2021/07/13 09:41:06;;;;;;;2.92;2.72;;;;;;;30.60;43.83;99241.53;10377704;28;20474;-73
2021/07/13 09:46:46;;;;;;;2.83;2.40;;;;;;;30.24;42.05;99238.94;10376924;28;20038;-72
2021/07/13 09:51:56;;;;;;;2.20;2.10;;;;;;;29.44;43.55;99235.34;10292626;28;20408;-73
2021/07/13 09:56:59;;;;;;;2.38;2.20;;;;;;;29.12;43.10;99229.28;10275915;28;20043;-73
2021/07/13 10:02:07;;;;;;;2.75;2.55;;;;;;;29.07;44.21;99229.00;10275805;28;20046;-73
2021/07/13 10:07:15;;;;;;;2.30;2.20;;;;;;;29.38;44.67;99223.38;10291497;28;20051;-73
2021/07/13 10:12:22;;;;;;;2.75;2.55;;;;;;;29.63;46.29;99223.09;10291950;28;20572;-73
2021/07/13 10:17:29;;;;;;;2.67;2.53;;;;;;;30.27;45.13;99219.56;10291843;28;20107;-73
2021/07/13 10:22:32;;;;;;;2.65;2.55;;;;;;;30.51;43.53;99227.28;10301475;28;20058;-73
2021/07/13 10:27:40;;;;;;;2.72;2.53;;;;;;;30.48;43.89;99224.13;10375975;28;20062;-73
2021/07/13 10:32:43;;;;;;;2.97;2.65;;;;;;;30.82;44.09;99218.78;10376075;28;20046;-73
2021/07/13 10:37:47;;;;;;;2.85;2.65;;;;;;;30.23;44.49;99227.25;10375482;28;20046;-73
2021/07/13 10:42:51;;;;;;;2.30;2.20;;;;;;;30.15;44.52;99219.28;10375991;28;20049;-73
2021/07/13 10:48:01;;;;;;;2.80;2.55;;;;;;;31.10;42.65;99204.31;10383118;28;20407;-73
2021/07/13 10:53:06;;;;;;;2.67;2.47;;;;;;;30.98;41.00;99211.34;10382909;28;20061;-73
2021/07/13 10:58:14;;;;;;;2.43;2.33;;;;;;;31.39;42.28;99220.34;10384032;28;20061;-73
2021/07/13 11:03:31;;;;;;;2.20;2.00;;;;;;;31.22;40.85;99202.69;10384104;28;20052;-73
2021/07/13 11:08:38;;;;;;;2.50;2.40;;;;;;;31.42;41.25;99196.53;10383176;28;20141;-74
2021/07/13 11:13:48;;;;;;;2.78;2.60;;;;;;;32.40;40.38;99181.44;10383681;28;20034;-74
2021/07/13 11:18:50;;;;;;;3.13;2.83;;;;;;;32.38;41.12;99189.00;10383702;28;20046;-74
2021/07/13 11:23:53;;;;;;;2.35;2.13;;;;;;;32.29;39.98;99193.78;10382235;28;20044;-73
2021/07/13 11:28:56;;;;;;;2.42;2.22;;;;;;;32.11;41.06;99180.81;10381951;28;20093;-73
2021/07/13 11:34:05;;;;;;;2.67;2.47;;;;;;;32.37;38.76;99170.97;10384255;28;20088;-73
2021/07/13 11:39:30;;;;;;;2.55;2.35;;;;;;;32.57;39.23;99166.38;10399983;28;20048;-74
2021/07/13 11:44:34;;;;;;;2.10;2.00;;;;;;;32.44;39.20;99169.09;10405564;28;20042;-73
2021/07/13 11:49:37;;;;;;;3.00;1.80;;;;;;;32.37;38.91;99163.69;10422214;28;20037;-73
2021/07/13 11:54:41;;;;;;;2.55;2.35;;;;;;;31.91;38.10;99160.94;10421502;28;20458;-73
2021/07/13 11:59:43;;;;;;;2.90;1.70;;;;;;;32.01;38.86;99145.06;10423011;28;20076;-72
2021/07/13 12:04:49;;;;;;;2.55;1.98;;;;;;;32.57;35.44;99130.16;10348769;28;20407;-74
2021/07/13 12:10:03;;;;;;;2.00;1.90;;;;;;;31.97;39.36;99138.38;10338921;28;20042;-73
2021/07/13 12:15:06;;;;;;;2.30;2.17;;;;;;;32.07;39.63;99132.50;10340563;28;20046;-73
2021/07/13 12:20:09;;;;;;;2.40;2.20;;;;;;;32.04;38.04;99116.59;10322683;28;20043;-73
2021/07/13 12:25:11;;;;;;;2.30;2.10;;;;;;;32.07;38.16;99127.91;10339413;28;20042;-73
2021/07/13 12:30:14;;;;;;;2.45;2.25;;;;;;;32.83;38.36;99113.75;10340026;28;20081;-72
2021/07/13 12:35:17;;;;;;;2.38;2.28;;;;;;;32.85;39.27;99114.41;10339028;28;20046;-72
2021/07/13 12:40:19;;;;;;;2.60;2.50;;;;;;;32.81;38.99;99109.59;10339143;28;20059;-73
2021/07/13 12:45:25;;;;;;;2.65;2.35;;;;;;;32.47;38.99;99108.84;10337344;28;20050;-73
2021/07/13 12:50:31;;;;;;;4.53;2.05;;;;;;;32.54;39.41;99095.22;10339450;28;20133;-73
2021/07/13 12:55:40;;;;;;;2.85;2.65;;;;;;;32.37;38.91;99097.56;10339184;28;20046;-73
2021/07/13 13:01:10;;;;;;;2.83;2.67;;;;;;;32.43;38.85;99091.28;10337693;28;20500;-73
2021/07/13 13:06:12;;;;;;;2.80;2.60;;;;;;;32.30;39.52;99092.09;10337691;28;20448;-73
2021/07/13 13:11:18;;;;;;;2.90;2.63;;;;;;;32.29;39.43;99084.16;10337493;28;20046;-72
2021/07/13 13:16:22;;;;;;;4.55;3.20;;;;;;;32.11;40.92;99087.53;10337021;28;20042;-73
2021/07/13 13:21:27;;;;;;;3.03;2.67;;;;;;;31.45;40.47;99076.63;10337987;28;20422;-72
2021/07/13 13:26:31;;;;;;;4.22;2.63;;;;;;;31.39;41.18;99087.28;10335430;28;20416;-73
2021/07/13 13:31:32;;;;;;;4.10;2.75;;;;;;;31.40;41.34;99085.41;10336566;28;20046;-72
2021/07/13 13:36:40;;;;;;;2.60;2.40;;;;;;;31.33;41.73;99087.25;10336424;28;20042;-73
2021/07/13 13:41:42;;;;;;;3.08;2.78;;;;;;;31.64;41.01;99076.63;10337012;28;20042;-73
2021/07/13 13:46:45;;;;;;;2.40;2.30;;;;;;;31.76;41.11;99084.19;10336538;28;20046;-72
2021/07/13 13:51:48;;;;;;;3.28;2.28;;;;;;;31.56;41.37;99082.28;10334403;28;20046;-73
2021/07/13 13:56:49;;;;;;;2.55;2.35;;;;;;;31.11;43.83;99079.22;10335947;28;20050;-73
2021/07/13 14:01:52;;;;;;;3.00;2.80;;;;;;;31.11;42.70;99071.09;10335852;28;20050;-72
2021/07/13 14:06:53;;;;;;;3.45;3.15;;;;;;;31.32;41.90;99080.16;10335938;28;20045;-73
2021/07/13 14:11:55;;;;;;;3.13;2.92;;;;;;;31.33;40.54;99082.66;10335856;28;20061;-72
2021/07/13 14:16:57;;;;;;;2.42;2.22;;;;;;;31.20;41.61;99079.88;10335484;28;20045;-71
2021/07/13 14:21:59;;;;;;;2.70;2.50;;;;;;;31.25;41.53;99077.38;10342443;28;20051;-72
2021/07/13 14:27:00;;;;;;;2.38;2.17;;;;;;;31.63;40.82;99068.72;10342218;28;20104;-73
2021/07/13 14:32:02;;;;;;;2.60;2.40;;;;;;;31.27;41.85;99072.59;10343175;28;20412;-73
2021/07/13 14:37:05;;;;;;;2.85;2.42;;;;;;;31.25;41.49;99065.69;10343680;28;20034;-74
2021/07/13 14:42:07;;;;;;;2.75;2.50;;;;;;;31.15;42.27;99057.94;10343494;28;20431;-73
2021/07/13 14:47:09;;;;;;;2.60;2.45;;;;;;;31.25;41.87;99052.13;10342727;28;20077;-73
2021/07/13 14:52:11;;;;;;;2.60;2.35;;;;;;;31.55;41.39;99037.16;10342133;28;20081;-73
2021/07/13 14:57:12;;;;;;;2.83;2.67;;;;;;;31.33;42.47;99044.66;10342013;28;20492;-73
2021/07/13 15:02:15;;;;;;;3.35;3.05;;;;;;;31.07;43.26;99045.41;10341599;28;20109;-74
2021/07/13 15:07:17;;;;;;;2.90;2.70;;;;;;;30.70;44.02;99046.72;10342710;28;20492;-73
2021/07/13 15:12:19;;;;;;;2.92;2.63;;;;;;;30.66;44.58;99027.28;10342362;28;20043;-73
2021/07/13 15:17:20;;;;;;;3.08;2.78;;;;;;;30.57;43.82;99027.66;10341937;28;20491;-72
2021/07/13 15:22:22;;;;;;;4.13;2.92;;;;;;;30.32;45.38;99024.63;10343281;28;20046;-73
2021/07/13 15:27:23;;;;;;;3.80;3.38;;;;;;;30.13;45.99;99027.00;10343138;28;20077;-73
2021/07/13 15:32:25;;;;;;;3.33;3.13;;;;;;;30.50;45.36;99027.63;10342211;28;20054;-73
2021/07/13 15:37:28;;;;;;;4.47;3.30;;;;;;;30.63;45.76;99024.13;10341800;28;20415;-73
2021/07/13 15:42:30;;;;;;;4.25;3.50;;;;;;;30.69;44.71;99025.22;10341133;28;20518;-73
2021/07/13 15:47:31;;;;;;;5.28;3.42;;;;;;;30.71;45.09;99023.13;10340872;28;20093;-73
2021/07/13 15:52:34;;;;;;;3.53;3.33;;;;;;;30.90;45.22;99015.09;10339245;28;20057;-73
2021/07/13 15:57:35;;;;;;;5.40;3.53;;;;;;;31.18;43.97;99029.56;10341289;28;20415;-73
2021/07/13 16:02:38;;;;;;;8.02;2.95;;;;;;;30.96;44.77;99035.16;10339055;28;20046;-72
2021/07/13 16:07:40;;;;;;;8.85;3.53;;;;;;;30.52;45.14;99032.88;10340262;28;20081;-71
2021/07/13 16:12:41;;;;;;;3.40;3.20;;;;;;;30.57;45.80;99050.19;10339194;28;20046;-72
2021/07/13 16:17:43;;;;;;;3.88;3.58;;;;;;;30.22;46.83;99054.81;10338962;28;20047;-72
2021/07/13 16:22:46;;;;;;;3.78;3.47;;;;;;;30.28;46.29;99055.88;10340145;28;20089;-74
2021/07/13 16:27:47;;;;;;;7.38;3.65;;;;;;;30.08;46.28;99059.28;10338208;28;20053;-71
2021/07/13 16:32:50;;;;;;;3.47;3.03;;;;;;;29.76;47.35;99049.03;10338406;28;20084;-72
2021/07/13 16:37:52;;;;;;;3.88;3.58;;;;;;;29.90;47.47;99046.22;10338044;28;20121;-73
2021/07/13 16:42:54;;;;;;;4.18;3.80;;;;;;;29.67;47.17;99042.09;10337320;28;20042;-73
2021/07/13 16:47:56;;;;;;;5.20;4.80;;;;;;;29.95;47.41;99044.78;10337450;28;20054;-73
2021/07/13 16:52:58;;;;;;;7.78;4.28;;;;;;;29.71;47.17;99046.09;10337718;28;20047;-72
2021/07/13 16:58:00;;;;;;;4.20;3.90;;;;;;;29.51;49.14;99041.28;10339396;28;20101;-72
2021/07/13 17:03:03;;;;;;;3.85;3.53;;;;;;;29.21;48.46;99047.88;10337678;28;20050;-74
2021/07/13 17:08:05;;;;;;;4.32;3.92;;;;;;;29.13;48.73;99038.84;10336789;28;20047;-73
2021/07/13 17:13:06;;;;;;;4.75;3.70;;;;;;;28.84;49.45;99028.09;10338293;28;20054;-74
2021/07/13 17:18:08;;;;;;;4.43;4.03;;;;;;;28.66;49.75;99025.78;10338298;28;20050;-72
2021/07/13 17:23:10;;;;;;;4.28;3.88;;;;;;;28.77;49.90;99036.09;10338047;28;20050;-72
2021/07/13 17:28:12;;;;;;;5.70;4.38;;;;;;;28.53;50.48;99042.69;10337700;28;20403;-72
2021/07/13 17:33:14;;;;;;;5.28;4.25;;;;;;;28.56;50.81;99052.28;10338482;28;20046;-72
2021/07/13 17:38:16;;;;;;;4.85;4.07;;;;;;;28.55;50.79;99019.00;10339187;28;20046;-73
2021/07/13 17:43:18;;;;;;;4.40;4.07;;;;;;;28.52;50.59;99041.03;10337141;28;20055;-71
2021/07/13 17:48:32;;;;;;;5.57;4.00;;;;;;;28.42;50.54;99040.44;10334857;28;20046;-72
2021/07/13 17:53:34;;;;;;;5.35;4.25;;;;;;;28.21;51.44;99051.16;10333381;28;20050;-73
2021/07/13 17:58:36;;;;;;;4.47;4.15;;;;;;;28.20;52.14;99050.31;10332731;28;20050;-72
2021/07/13 18:03:39;;;;;;;5.13;4.68;;;;;;;28.23;52.21;99039.13;10334701;28;20054;-74
2021/07/13 18:08:43;;;;;;;7.17;4.80;;;;;;;28.07;52.59;99015.00;10334905;28;20520;-72
2021/07/13 18:13:45;;;;;;;5.40;4.97;;;;;;;27.96;53.57;99000.09;10336926;28;20081;-73
2021/07/13 18:18:47;;;;;;;5.65;5.15;;;;;;;27.97;53.47;99009.84;10334950;28;20501;-72
2021/07/13 18:23:49;;;;;;;6.43;5.53;;;;;;;27.80;54.20;99000.25;10334935;28;20452;-67
2021/07/13 18:28:51;;;;;;;5.25;4.82;;;;;;;27.75;53.94;99005.38;10333417;28;20045;-72
2021/07/13 18:33:52;;;;;;;5.68;5.15;;;;;;;27.63;54.60;99002.25;10333418;28;20397;-74
2021/07/13 18:38:54;;;;;;;5.93;5.47;;;;;;;27.54;54.26;98992.56;10333581;28;20034;-74
2021/07/13 18:43:56;;;;;;;5.38;5.05;;;;;;;27.49;54.95;98981.44;10333445;28;20053;-75
2021/07/13 18:48:57;;;;;;;5.93;5.40;;;;;;;27.29;55.83;98978.44;10336253;28;20039;-75
2021/07/13 18:53:59;;;;;;;6.22;5.25;;;;;;;27.47;55.62;98983.50;10334476;28;20088;-75
2021/07/13 18:59:02;;;;;;;6.25;5.75;;;;;;;27.35;56.09;98977.69;10334673;28;20050;-74
2021/07/13 19:04:03;;;;;;;6.55;6.10;;;;;;;27.06;58.10;98964.94;10335048;28;20104;-75
2021/07/13 19:09:05;;;;;;;6.53;6.03;;;;;;;26.97;58.73;98958.75;10341475;28;20047;-74
2021/07/13 19:14:07;;;;;;;8.07;7.35;;;;;;;27.01;58.49;98989.75;10342093;28;20046;-74
2021/07/13 19:19:08;;;;;;;7.03;6.53;;;;;;;26.82;59.70;99015.31;10342433;28;20039;-74
2021/07/13 19:24:10;;;;;;;8.30;7.50;;;;;;;27.00;59.02;99039.28;10343993;28;20049;-75
2021/07/13 19:29:14;;;;;;;7.63;7.03;;;;;;;26.96;59.62;99029.91;10344359;28;20088;-75
2021/07/13 19:35:07;;;;;;;6.47;6.05;;;;;;;26.86;60.03;99029.28;10343557;28;20057;-75
2021/07/13 19:39:37;;;;;;;7.50;7.00;;;;;;;26.87;60.34;99063.31;10336097;28;20046;-75
2021/07/13 19:44:39;;;;;;;11.25;7.05;;;;;;;26.33;55.69;99055.09;10342425;28;20050;-76
2021/07/13 19:49:41;;;;;;;11.20;6.07;;;;;;;25.67;57.09;99063.25;10343845;28;20043;-72
2021/07/13 19:54:43;;;;;;;9.23;4.72;;;;;;;25.22;58.26;99089.78;10344334;28;20046;-70
2021/07/13 19:59:44;;;;;;;10.20;3.72;;;;;;;24.13;61.92;99115.47;10324464;28;20082;-71
2021/07/13 20:04:46;;;;;;;10.13;3.97;;;;;;;23.60;65.34;99204.06;10341153;28;20050;-72
2021/07/13 20:09:48;;;;;;;11.15;4.57;;;;;;;22.52;72.74;99320.69;10339951;28;20049;-69
2021/07/13 20:14:49;;;;;;;19.38;4.20;;;;;;;21.07;78.19;99262.38;10338400;28;20057;-69
2021/07/13 20:19:51;;;;;;;8.05;3.05;;;;;;;20.19;77.70;99116.03;10336593;28;20054;-68
2021/07/13 20:24:52;;;;;;;8.57;2.72;;;;;;;20.00;77.32;99110.56;10338074;28;20570;-68
2021/07/13 20:29:54;;;;;;;6.05;2.65;;;;;;;19.98;82.64;99147.22;10336321;28;20050;-69
2021/07/13 20:34:56;;;;;;;9.00;3.28;;;;;;;19.97;82.48;99214.88;10336668;28;20130;-69
2021/07/13 20:39:57;;;;;;;5.35;2.50;;;;;;;19.86;83.61;99245.09;10337943;28;20500;-70
2021/07/13 20:44:59;;;;;;;6.03;2.70;;;;;;;19.98;83.55;99297.44;10338153;28;20046;-70
2021/07/13 20:50:01;;;;;;;7.30;2.90;;;;;;;20.09;84.11;99268.03;10337679;28;20054;-69
2021/07/13 20:55:04;;;;;;;10.93;4.32;;;;;;;20.05;87.06;99249.75;10337764;28;20557;-70
2021/07/13 21:00:06;;;;;;;10.73;4.30;;;;;;;20.00;85.71;99211.94;10337173;28;20113;-69
2021/07/13 21:05:09;;;;;;;6.53;3.67;;;;;;;20.11;85.36;99209.22;10337144;28;20049;-68
2021/07/13 21:10:11;;;;;;;12.40;4.35;;;;;;;20.00;85.40;99186.09;10336164;28;20109;-68
2021/07/13 21:15:13;;;;;;;9.05;4.50;;;;;;;20.02;87.42;99221.53;10335842;28;20042;-68
2021/07/13 21:20:15;;;;;;;9.75;4.03;;;;;;;20.27;85.51;99275.47;10335987;28;20046;-70
2021/07/13 21:25:16;;;;;;;10.02;4.05;;;;;;;20.21;86.91;99268.00;10336261;28;20054;-69
2021/07/13 21:30:19;;;;;;;7.72;3.17;;;;;;;20.32;86.28;99292.81;10336184;28;20050;-70
2021/07/13 21:35:22;;;;;;;7.13;3.90;;;;;;;20.31;86.40;99315.13;10334048;28;20058;-69
2021/07/13 21:40:23;;;;;;;8.70;4.55;;;;;;;20.21;87.93;99319.53;10334958;28;20042;-70
2021/07/13 21:45:25;;;;;;;8.32;3.97;;;;;;;20.33;89.00;99304.34;10336331;28;20097;-69
2021/07/13 21:50:27;;;;;;;9.98;4.75;;;;;;;20.33;89.10;99245.63;10334344;28;20104;-69
2021/07/13 21:55:29;;;;;;;10.38;4.72;;;;;;;20.32;89.20;99155.84;10333861;28;20046;-69
2021/07/13 22:00:30;;;;;;;14.65;4.15;;;;;;;20.46;87.76;99134.16;10334430;28;20097;-68
2021/07/13 22:05:32;;;;;;;7.30;3.80;;;;;;;20.68;87.67;99207.94;10334840;28;20096;-69
2021/07/13 22:10:34;;;;;;;8.52;4.28;;;;;;;20.46;88.02;99200.06;10335131;28;20058;-70
2021/07/13 22:15:36;;;;;;;6.82;4.25;;;;;;;20.24;90.00;99201.03;10334479;28;20038;-68
2021/07/13 22:20:37;;;;;;;6.63;4.57;;;;;;;20.21;90.22;99201.28;10334632;28;20054;-69
2021/07/13 22:25:39;;;;;;;7.53;3.95;;;;;;;20.41;89.70;99192.44;10335366;28;20042;-68
2021/07/13 22:30:41;;;;;;;7.75;4.07;;;;;;;20.53;88.06;99193.22;10333357;28;20097;-69
2021/07/13 22:35:43;;;;;;;6.90;4.30;;;;;;;20.38;89.27;99235.41;10334476;28;20050;-68
2021/07/13 22:40:44;;;;;;;9.48;4.18;;;;;;;20.27;90.15;99246.13;10337565;28;20070;-69
2021/07/13 22:45:46;;;;;;;6.97;3.58;;;;;;;20.44;89.72;99252.72;10341792;28;20043;-68
2021/07/13 22:50:47;;;;;;;6.85;3.83;;;;;;;20.63;87.68;99244.88;10341917;28;20054;-69
2021/07/13 22:55:49;;;;;;;7.63;4.63;;;;;;;20.46;88.55;99264.97;10342235;28;20459;-68
2021/07/13 23:00:50;;;;;;;9.45;4.45;;;;;;;20.39;88.12;99272.63;10341791;28;20046;-68
2021/07/13 23:05:52;;;;;;;8.75;4.28;;;;;;;20.31;88.61;99268.91;10341352;28;20039;-70
2021/07/13 23:10:54;;;;;;;8.90;5.30;;;;;;;20.34;88.67;99264.16;10341163;28;20054;-68
2021/07/13 23:15:58;;;;;;;9.40;6.45;;;;;;;20.21;88.93;99255.50;10342038;28;20381;-69
2021/07/13 23:21:00;;;;;;;7.88;5.07;;;;;;;20.29;88.15;99265.53;10340782;28;20042;-69
2021/07/13 23:26:02;;;;;;;5.05;4.40;;;;;;;20.15;89.65;99264.03;10340371;28;20047;-69
2021/07/13 23:31:04;;;;;;;6.50;4.80;;;;;;;20.15;88.99;99267.53;10340136;28;20093;-68